Pagrindinis puslapis
METAR-TAF:

METAR-TAF

Oro uostai :

Haugesiundas, Norvegija

platuma: 59-21N, ilguma: 005-13E, Aukštis: 2 m

Dabartinis oras

Ataskaita buvo paskelbta 8 minutes, ne 07:20 UTC
Vėjas 17 kt iš Vakarų/Šiaurės Vakarų
Temperatūra 4°C
Drėgmė 75%
Slėgis 999 hPa
Matomumas 10 km arba daugiau
Mažai debesys ne aukštis 1500 ft, Liūtiniai kamuoliniai debesys.
Mažai debesys ne aukštis 2200 ft
Išsisklaidę debesys ne aukštis 3100 ft
Liūtis kaimynystėje

METAR: ENHD 280720Z 29017KT 9999 VCSH FEW015CB FEW022 SCT031 04/00 Q0999 RERA

Laikas: 08:28 (07:28 UTC)

Prognozė

Ataskaita buvo paskelbta 2 valandos ir 28 minutes, ne 05:00 UTC
Prognozė galioja nuo 28 metu 06 UTC su 28 metu 15 UTC
Vėjas 15 kt iš Vakarų
Matomumas 10 km arba daugiau
Mažai debesys ne aukštis 1200 ft, Liūtiniai kamuoliniai debesys.
Su prošvaistėmis ne aukštis 2000 ft
lietus

TAF: ENHD 280500Z 2806/2815 27015KT 9999 -SHRA FEW012CB BKN020

Orai ataskaitas ir orų prognozės (METAR, TAF).

turimą stotys yra geltonos ir raudonos taškus žemėlapyje.

Perkelti pele per norėdami pamatyti stoties vardą.

Tada spustelėkite, norėdami matyti oro stebėjimo ir prognozės.

Norėdami pakeisti žemėlapį: spustelėkite ant žalios mygtukų su juodo kryžiaus žemyn,; žalią mygtuką su brūkšneliu, jei norite nutolinti; arba žalių rodyklių gretimoms žemėlapius.


METAR-TAF: